Time;durP1;ratioP1;P1;durP2;ratioP2;P2;SDS_P1;SDS_P2;PMS_P1;PMS_P2;Temp;Humidity;BMP_temperature;BMP_pressure;BME280_temperature;BME280_humidity;BME280_pressure;Samples;Min_cycle;Max_cycle;Signal;HPM_P1;HPM_P2
2023/05/05 00:01:27;;;;;;;9.80;3.67;;;;;;;12.60;58.92;101875.00;7390382;19;20026;-49
2023/05/05 00:03:54;;;;;;;7.25;3.20;;;;;;;12.61;58.84;101873.19;7387667;19;20487;-49
2023/05/05 00:06:21;;;;;;;8.98;3.10;;;;;;;12.64;58.86;101865.03;7388112;19;20019;-49
2023/05/05 00:08:48;;;;;;;6.20;2.72;;;;;;;12.58;59.47;101865.41;7388577;19;20035;-52
2023/05/05 00:11:15;;;;;;;9.50;3.08;;;;;;;12.54;59.36;101866.56;7387355;19;20022;-50
2023/05/05 00:13:42;;;;;;;9.88;3.33;;;;;;;12.52;59.51;101866.66;7387484;19;20018;-52
2023/05/05 00:16:09;;;;;;;10.20;3.42;;;;;;;12.47;59.71;101865.22;7386237;19;20094;-50
2023/05/05 00:18:36;;;;;;;8.77;3.20;;;;;;;12.46;59.94;101858.22;7389004;19;20022;-52
2023/05/05 00:21:03;;;;;;;9.80;3.33;;;;;;;12.46;59.83;101867.03;7390121;19;20035;-52
2023/05/05 00:23:30;;;;;;;9.85;3.40;;;;;;;12.46;59.96;101860.88;7389491;19;20018;-53
2023/05/05 00:25:57;;;;;;;7.43;3.15;;;;;;;12.47;59.89;101862.56;7385946;19;20022;-51
2023/05/05 00:28:24;;;;;;;10.82;3.40;;;;;;;12.41;60.25;101853.22;7389056;19;20033;-52
2023/05/05 00:30:51;;;;;;;12.02;3.00;;;;;;;12.42;60.08;101858.41;7389444;19;20461;-53
2023/05/05 00:33:18;;;;;;;10.00;3.15;;;;;;;12.39;60.29;101858.59;7389276;19;20022;-50
2023/05/05 00:35:45;;;;;;;10.00;3.03;;;;;;;12.41;60.21;101854.06;7386074;19;20026;-52
2023/05/05 00:38:12;;;;;;;9.27;3.60;;;;;;;12.43;60.23;101849.47;7387571;19;20019;-53
2023/05/05 00:40:40;;;;;;;7.40;3.15;;;;;;;12.43;60.11;101851.28;7388541;19;20332;-52
2023/05/05 00:43:07;;;;;;;10.05;3.10;;;;;;;12.40;60.26;101844.41;7390205;19;20043;-53
2023/05/05 00:45:36;;;;;;;10.13;3.20;;;;;;;12.35;60.24;101841.16;7391499;19;20018;-52
2023/05/05 00:48:04;;;;;;;9.80;3.40;;;;;;;12.40;60.56;101840.84;7397014;19;20052;-54
2023/05/05 00:50:31;;;;;;;8.00;3.10;;;;;;;12.38;60.15;101835.66;7395872;19;20336;-48
2023/05/05 00:53:03;;;;;;;7.45;2.88;;;;;;;12.39;60.22;101832.03;7396268;19;20023;-53
2023/05/05 00:55:32;;;;;;;7.50;2.90;;;;;;;12.36;60.44;101831.38;7394408;19;20026;-49
2023/05/05 00:57:59;;;;;;;8.10;2.78;;;;;;;12.33;60.33;101832.44;7396523;19;20025;-53
2023/05/05 01:00:27;;;;;;;9.52;2.97;;;;;;;12.26;60.62;101825.81;7395378;19;20043;-47
2023/05/05 01:02:54;;;;;;;9.00;3.22;;;;;;;12.26;60.74;101817.00;7397277;19;20006;-47
2023/05/05 01:05:23;;;;;;;8.23;2.75;;;;;;;12.30;60.61;101819.34;7392682;19;20535;-49
2023/05/05 01:08:01;;;;;;;9.07;3.15;;;;;;;12.33;60.57;101810.34;7395708;19;20018;-48
2023/05/05 01:10:37;;;;;;;10.05;3.33;;;;;;;12.27;60.61;101803.59;7395472;19;20039;-50
2023/05/05 01:13:11;;;;;;;8.02;3.00;;;;;;;12.21;60.93;101804.03;7395430;19;20216;-50
2023/05/05 01:15:41;;;;;;;8.55;3.00;;;;;;;12.21;60.76;101798.72;7393564;19;20018;-49
2023/05/05 01:18:35;;;;;;;10.38;3.50;;;;;;;12.17;61.12;101800.72;7395275;19;20023;-51
2023/05/05 01:21:09;;;;;;;7.45;3.17;;;;;;;12.08;61.14;101806.59;7395653;19;20525;-53
2023/05/05 01:23:46;;;;;;;;;;;;;;;11.97;61.78;101806.41;7396242;19;20023;-50
2023/05/05 01:26:32;;;;;;;11.40;3.35;;;;;;;11.99;61.30;101799.22;7391359;19;19929;-49
2023/05/05 01:29:17;;;;;;;11.70;3.15;;;;;;;12.06;61.20;101797.03;7391770;19;20495;-49
2023/05/05 01:31:52;;;;;;;8.00;2.85;;;;;;;12.01;61.30;101797.28;7394497;19;20014;-48
2023/05/05 01:34:31;;;;;;;6.85;2.85;;;;;;;11.98;61.42;101794.84;7396872;19;20460;-51
2023/05/05 01:37:10;;;;;;;9.35;3.08;;;;;;;12.02;61.56;101795.50;7392118;19;20014;-52
2023/05/05 01:39:40;;;;;;;7.40;2.97;;;;;;;12.02;61.35;101793.72;7393918;19;20019;-52
2023/05/05 01:42:13;;;;;;;8.30;3.13;;;;;;;12.02;61.23;101792.84;7395257;19;20043;-51
2023/05/05 01:44:43;;;;;;;11.55;3.40;;;;;;;11.97;61.45;101793.13;7392707;19;20022;-49
2023/05/05 01:47:18;;;;;;;6.70;2.78;;;;;;;11.98;61.60;101781.59;7394283;19;20018;-52
2023/05/05 01:49:46;;;;;;;11.50;3.45;;;;;;;12.02;61.25;101793.72;7391790;19;20502;-50
2023/05/05 01:52:14;;;;;;;8.23;2.85;;;;;;;12.04;61.01;101781.19;7392756;19;20515;-50
2023/05/05 01:54:44;;;;;;;9.85;3.40;;;;;;;11.99;61.15;101783.28;7392111;19;20044;-49
2023/05/05 01:57:13;;;;;;;8.80;3.35;;;;;;;11.97;61.36;101779.84;7389416;19;20023;-51
2023/05/05 01:59:40;;;;;;;8.13;3.03;;;;;;;12.04;60.95;101793.59;7392374;19;20491;-50
2023/05/05 02:02:10;;;;;;;9.45;2.88;;;;;;;12.06;60.69;101794.38;7389199;19;20039;-51
2023/05/05 02:04:41;;;;;;;10.77;3.47;;;;;;;11.98;61.05;101791.31;7392363;19;20014;-49
2023/05/05 02:07:10;;;;;;;8.93;2.85;;;;;;;11.87;61.45;101778.75;7393942;19;20049;-49
2023/05/05 02:09:37;;;;;;;8.23;3.17;;;;;;;11.87;61.17;101768.97;7392928;19;20174;-50
2023/05/05 02:12:06;;;;;;;10.95;3.33;;;;;;;11.91;61.19;101769.66;7393697;19;20041;-49
2023/05/05 02:14:34;;;;;;;10.85;3.20;;;;;;;11.95;60.84;101771.16;7391512;19;20026;-49
2023/05/05 02:17:02;;;;;;;9.95;3.00;;;;;;;11.89;60.88;101774.19;7391669;19;20018;-49
2023/05/05 02:19:37;;;;;;;8.20;3.17;;;;;;;11.82;61.27;101771.00;7392882;19;20026;-48
2023/05/05 02:22:04;;;;;;;9.82;2.97;;;;;;;11.79;61.17;101765.94;7393140;19;20026;-49
2023/05/05 02:24:31;;;;;;;10.70;3.47;;;;;;;11.80;61.35;101774.75;7390958;19;20018;-49
2023/05/05 02:27:02;;;;;;;9.55;3.00;;;;;;;11.78;61.30;101768.66;7389578;19;20042;-51
2023/05/05 02:29:50;;;;;;;8.70;3.25;;;;;;;11.79;60.68;101768.59;7392680;19;20018;-50
2023/05/05 02:32:30;;;;;;;10.15;3.03;;;;;;;11.75;61.20;101763.53;7393066;19;20078;-49
2023/05/05 02:35:03;;;;;;;9.68;3.38;;;;;;;11.71;61.19;101757.56;7391546;19;20025;-50
2023/05/05 02:37:31;;;;;;;11.18;3.47;;;;;;;11.71;60.90;101755.78;7392541;19;20047;-50
2023/05/05 02:40:04;;;;;;;9.25;3.30;;;;;;;11.70;60.84;101761.19;7390132;19;20022;-52
2023/05/05 02:42:39;;;;;;;8.13;3.35;;;;;;;11.60;61.10;101766.22;7390528;19;20459;-52
2023/05/05 02:45:11;;;;;;;10.65;2.90;;;;;;;11.61;61.16;101767.06;7391361;19;20078;-48
2023/05/05 02:47:38;;;;;;;8.77;3.25;;;;;;;11.65;60.94;101768.56;7392499;19;20047;-48
2023/05/05 02:50:07;;;;;;;9.00;3.47;;;;;;;11.62;60.91;101766.97;7391404;19;20038;-52
2023/05/05 02:52:35;;;;;;;9.40;3.28;;;;;;;11.61;60.73;101769.72;7391895;19;20014;-49
2023/05/05 02:55:03;;;;;;;10.10;3.35;;;;;;;11.62;60.89;101766.09;7390895;19;20022;-51
2023/05/05 02:57:51;;;;;;;11.38;3.47;;;;;;;11.62;60.67;101761.66;7389538;19;20047;-50
2023/05/05 03:00:29;;;;;;;8.82;3.17;;;;;;;11.59;60.73;101758.34;7389532;19;20386;-49
2023/05/05 03:03:04;;;;;;;9.05;3.40;;;;;;;11.63;60.39;101758.03;7388703;19;20412;-49
2023/05/05 03:05:46;;;;;;;12.93;3.55;;;;;;;11.60;60.39;101752.06;7386571;19;20280;-49
2023/05/05 03:08:17;;;;;;;9.45;3.17;;;;;;;11.56;60.44;101748.78;7388326;19;20394;-49
2023/05/05 03:10:58;;;;;;;9.77;3.17;;;;;;;11.53;60.63;101753.44;7391711;19;20017;-54
2023/05/05 03:13:27;;;;;;;8.20;3.10;;;;;;;11.51;60.54;101752.66;7391458;19;20070;-52
2023/05/05 03:15:56;;;;;;;6.28;3.28;;;;;;;11.49;60.80;101743.94;7389895;19;20015;-52
2023/05/05 03:18:26;;;;;;;13.73;3.63;;;;;;;11.44;60.92;101738.91;7391060;19;20030;-53
2023/05/05 03:20:53;;;;;;;10.68;3.80;;;;;;;11.42;60.61;101736.34;7390122;19;20022;-53
2023/05/05 03:23:21;;;;;;;8.23;3.45;;;;;;;11.32;61.02;101739.66;7391107;19;20058;-51
2023/05/05 03:25:49;;;;;;;10.73;3.33;;;;;;;11.36;60.43;101747.34;7387900;19;20022;-50
2023/05/05 03:28:16;;;;;;;7.18;3.13;;;;;;;11.33;60.68;101739.59;7391018;19;20614;-50
2023/05/05 03:30:44;;;;;;;9.25;3.30;;;;;;;11.32;60.91;101742.31;7389559;19;20023;-54
2023/05/05 03:33:11;;;;;;;10.20;3.08;;;;;;;11.36;60.72;101735.88;7391343;19;20095;-50
2023/05/05 03:35:38;;;;;;;12.00;3.63;;;;;;;11.37;60.37;101733.16;7389598;19;20018;-50
2023/05/05 03:38:05;;;;;;;9.65;3.33;;;;;;;11.32;60.38;101727.25;7390579;19;20022;-49
2023/05/05 03:40:32;;;;;;;10.25;3.60;;;;;;;11.32;60.55;101734.34;7389350;19;20028;-52
2023/05/05 03:43:10;;;;;;;10.45;3.45;;;;;;;11.32;60.39;101729.06;7390895;19;20010;-50
2023/05/05 03:45:37;;;;;;;8.30;3.40;;;;;;;11.32;60.44;101729.06;7388348;19;20018;-52
2023/05/05 03:48:05;;;;;;;9.13;3.60;;;;;;;11.29;60.60;101721.28;7390780;19;20014;-49
2023/05/05 03:50:32;;;;;;;10.90;3.50;;;;;;;11.29;60.38;101727.44;7389981;19;20034;-52
2023/05/05 03:52:59;;;;;;;11.43;3.40;;;;;;;11.28;60.46;101740.81;7388959;19;20494;-52
2023/05/05 03:55:26;;;;;;;10.73;3.90;;;;;;;11.28;60.47;101733.69;7388181;19;20047;-50
2023/05/05 03:57:53;;;;;;;9.27;3.72;;;;;;;11.29;60.25;101738.03;7390279;19;20011;-51
2023/05/05 04:00:20;;;;;;;9.85;3.35;;;;;;;11.25;60.24;101736.53;7389383;19;20015;-48
2023/05/05 04:02:48;;;;;;;9.35;3.33;;;;;;;11.23;60.24;101738.44;7390955;19;20018;-53
2023/05/05 04:05:15;;;;;;;10.65;3.97;;;;;;;11.19;60.09;101737.75;7388124;19;20018;-53
2023/05/05 04:07:42;;;;;;;7.45;3.47;;;;;;;11.25;60.28;101730.38;7390096;19;20023;-51
2023/05/05 04:10:09;;;;;;;9.88;3.58;;;;;;;11.25;60.02;101735.69;7387329;19;20010;-51
2023/05/05 04:12:36;;;;;;;9.18;3.53;;;;;;;11.23;59.98;101735.78;7394520;19;20018;-49
2023/05/05 04:15:04;;;;;;;10.45;2.95;;;;;;;11.22;59.88;101737.59;7388617;19;20018;-49
2023/05/05 04:17:31;;;;;;;8.38;3.20;;;;;;;11.22;59.81;101734.09;7393088;19;20022;-54
2023/05/05 04:19:58;;;;;;;11.65;3.97;;;;;;;11.29;59.81;101747.78;7396208;19;20070;-53
2023/05/05 04:22:25;;;;;;;9.75;3.50;;;;;;;11.29;59.76;101740.69;7395705;19;20010;-54
2023/05/05 04:24:52;;;;;;;10.00;3.40;;;;;;;11.26;59.60;101734.75;7396464;19;20019;-52
2023/05/05 04:27:19;;;;;;;10.70;3.58;;;;;;;11.24;59.74;101737.47;7396456;19;20022;-51
2023/05/05 04:29:46;;;;;;;9.52;3.85;;;;;;;11.25;59.59;101717.13;7396566;19;20019;-52
2023/05/05 04:32:13;;;;;;;7.78;3.33;;;;;;;11.22;59.82;101723.47;7397374;19;20047;-53
2023/05/05 04:34:40;;;;;;;9.73;3.17;;;;;;;11.25;59.88;101723.25;7396385;19;20019;-52
2023/05/05 04:37:07;;;;;;;9.25;3.35;;;;;;;11.35;59.54;101720.91;7396918;19;20076;-53
2023/05/05 04:39:34;;;;;;;11.60;3.50;;;;;;;11.30;59.06;101721.22;7396307;19;20018;-53
2023/05/05 04:42:01;;;;;;;10.57;3.10;;;;;;;11.36;59.20;101726.13;7396797;19;20019;-48
2023/05/05 04:44:28;;;;;;;13.50;3.65;;;;;;;11.44;59.17;101726.50;7396450;19;20022;-48
2023/05/05 04:46:56;;;;;;;10.48;3.42;;;;;;;11.49;58.64;101718.28;7391913;19;20856;-49
2023/05/05 04:49:23;;;;;;;9.55;3.20;;;;;;;11.44;58.84;101715.88;7395979;19;20040;-47
2023/05/05 04:51:50;;;;;;;10.88;3.17;;;;;;;11.48;58.81;101727.16;7396379;19;20051;-48
2023/05/05 04:54:17;;;;;;;10.32;3.20;;;;;;;11.44;58.92;101734.44;7394002;19;20047;-53
2023/05/05 04:56:44;;;;;;;11.13;3.35;;;;;;;11.50;58.77;101727.09;7393937;19;20030;-49
2023/05/05 04:59:11;;;;;;;10.15;3.50;;;;;;;11.57;58.52;101733.72;7395600;19;20127;-49
2023/05/05 05:01:38;;;;;;;10.68;3.20;;;;;;;11.58;58.62;101746.88;7396094;19;20022;-51
2023/05/05 05:04:06;;;;;;;11.88;3.83;;;;;;;11.56;58.47;101743.47;7395612;19;20114;-48
2023/05/05 05:06:33;;;;;;;10.93;3.63;;;;;;;11.60;58.52;101747.66;7392684;19;20495;-49
2023/05/05 05:09:00;;;;;;;8.80;3.25;;;;;;;11.60;58.45;101760.03;7394398;19;20036;-51
2023/05/05 05:11:27;;;;;;;10.32;3.63;;;;;;;11.61;58.50;101759.94;7395945;19;20015;-49
2023/05/05 05:13:54;;;;;;;12.07;3.83;;;;;;;11.62;58.61;101752.84;7395047;19;20567;-49
2023/05/05 05:16:23;;;;;;;8.88;3.53;;;;;;;11.61;58.67;101754.66;7392816;19;20015;-53
2023/05/05 05:18:50;;;;;;;11.60;3.70;;;;;;;11.57;58.73;101754.94;7394156;19;20022;-51
2023/05/05 05:21:17;;;;;;;12.90;3.67;;;;;;;11.52;59.10;101751.69;7395651;19;20023;-52
2023/05/05 05:23:44;;;;;;;9.48;3.63;;;;;;;11.59;58.76;101743.25;7394639;19;20052;-50
2023/05/05 05:26:11;;;;;;;11.38;4.07;;;;;;;11.59;58.80;101729.16;7392987;19;20018;-53
2023/05/05 05:28:38;;;;;;;9.98;3.75;;;;;;;11.54;58.85;101728.59;7393095;19;20015;-48
2023/05/05 05:31:05;;;;;;;11.70;3.70;;;;;;;11.56;58.86;101726.69;7392724;19;20475;-52
2023/05/05 05:33:32;;;;;;;11.65;3.42;;;;;;;11.49;58.74;101734.19;7394035;19;20070;-48
2023/05/05 05:35:59;;;;;;;10.98;3.75;;;;;;;11.48;58.75;101735.13;7392174;19;20018;-52
2023/05/05 05:38:26;;;;;;;13.82;3.97;;;;;;;11.51;58.92;101739.38;7393584;19;20039;-53
2023/05/05 05:40:53;;;;;;;8.48;3.60;;;;;;;11.59;59.05;101742.41;7394253;19;20035;-50
2023/05/05 05:43:20;;;;;;;10.77;4.38;;;;;;;11.64;58.63;101740.34;7392626;19;20018;-49
2023/05/05 05:45:47;;;;;;;13.82;4.25;;;;;;;11.83;58.49;101732.97;7392161;19;20015;-52
2023/05/05 05:48:14;;;;;;;14.73;4.10;;;;;;;12.02;57.76;101737.97;7394911;19;20037;-59
2023/05/05 05:50:41;;;;;;;13.27;4.28;;;;;;;12.17;57.57;101721.03;7393593;19;20050;-50
2023/05/05 05:53:08;;;;;;;19.85;9.52;;;;;;;12.33;57.09;101726.19;7395092;19;20071;-57
2023/05/05 05:55:35;;;;;;;15.63;7.05;;;;;;;12.42;56.96;101728.25;7392778;19;20014;-56
2023/05/05 05:58:02;;;;;;;14.25;4.72;;;;;;;12.50;56.41;101735.72;7393891;19;20019;-54
2023/05/05 06:00:29;;;;;;;14.10;4.10;;;;;;;12.51;56.41;101742.72;7391919;19;20101;-53
2023/05/05 06:02:56;;;;;;;11.60;3.90;;;;;;;12.61;56.24;101737.66;7393924;19;20498;-49
2023/05/05 06:05:23;;;;;;;11.48;4.28;;;;;;;12.63;56.34;101728.63;7392305;19;20102;-55
2023/05/05 06:07:50;;;;;;;16.00;3.83;;;;;;;12.66;56.12;101733.72;7393629;19;20550;-56
2023/05/05 06:10:17;;;;;;;15.02;4.10;;;;;;;12.71;56.24;101725.47;7391452;19;20134;-55
2023/05/05 06:12:54;;;;;;;10.95;3.60;;;;;;;12.67;56.12;101734.59;7394171;19;20039;-55
2023/05/05 06:15:21;;;;;;;11.45;3.80;;;;;;;12.68;56.12;101737.16;7390758;19;20483;-55
2023/05/05 06:17:48;;;;;;;10.27;3.67;;;;;;;12.62;56.24;101749.97;7393525;19;20019;-53
2023/05/05 06:20:15;;;;;;;13.88;4.53;;;;;;;12.64;56.33;101738.31;7393111;19;20118;-54
2023/05/05 06:22:42;;;;;;;12.65;3.90;;;;;;;12.61;56.36;101741.16;7392756;19;20519;-55
2023/05/05 06:25:10;;;;;;;11.88;4.93;;;;;;;12.60;56.40;101731.50;7390203;19;20022;-56
2023/05/05 06:27:37;;;;;;;12.65;4.05;;;;;;;12.66;56.21;101744.34;7391525;19;20030;-56
2023/05/05 06:30:05;;;;;;;9.60;4.07;;;;;;;12.73;55.79;101746.63;7392063;19;20097;-58
2023/05/05 06:32:32;;;;;;;10.65;3.67;;;;;;;12.74;55.98;101751.81;7391359;19;20561;-54
2023/05/05 06:34:59;;;;;;;10.40;3.58;;;;;;;12.77;55.86;101742.78;7391746;19;20022;-57
2023/05/05 06:37:26;;;;;;;9.05;3.50;;;;;;;12.79;55.79;101749.72;7392699;19;20039;-56
2023/05/05 06:39:54;;;;;;;18.00;3.55;;;;;;;12.84;56.10;101760.88;7389740;19;20442;-55
2023/05/05 06:42:21;;;;;;;12.10;4.18;;;;;;;12.82;55.86;101754.84;7390110;19;20014;-56
2023/05/05 06:44:48;;;;;;;14.35;5.18;;;;;;;12.78;56.20;101763.09;7392067;19;20035;-54
2023/05/05 06:47:15;;;;;;;15.15;5.88;;;;;;;12.79;56.32;101778.13;7390453;19;20048;-57
2023/05/05 06:49:42;;;;;;;12.13;4.70;;;;;;;12.79;56.55;101794.91;7391527;19;20015;-57
2023/05/05 06:52:09;;;;;;;11.45;4.38;;;;;;;12.76;56.43;101799.56;7392037;19;20018;-57
2023/05/05 06:54:36;;;;;;;13.32;5.97;;;;;;;12.80;56.93;101807.25;7391594;19;20022;-57
2023/05/05 06:57:02;;;;;;;16.80;7.85;;;;;;;12.83;56.86;101830.97;7389873;19;20025;-57
2023/05/05 06:59:29;;;;;;;12.63;5.63;;;;;;;12.92;56.46;101893.31;7391260;19;20035;-57
2023/05/05 07:01:56;;;;;;;11.88;4.15;;;;;;;12.85;56.58;101943.34;7391044;19;20018;-56
2023/05/05 07:04:23;;;;;;;9.45;3.80;;;;;;;12.93;55.98;101957.03;7391478;19;20035;-57
2023/05/05 07:06:50;;;;;;;11.02;3.92;;;;;;;13.02;55.55;101938.78;7389529;19;20022;-56
2023/05/05 07:09:19;;;;;;;10.93;4.85;;;;;;;13.04;55.50;101881.00;7389672;19;20053;-54
2023/05/05 07:11:46;;;;;;;13.52;4.53;;;;;;;13.15;55.18;101871.38;7388705;19;20035;-50
2023/05/05 07:14:13;;;;;;;10.82;3.50;;;;;;;13.25;55.15;101866.34;7390787;19;20018;-52
2023/05/05 07:16:40;;;;;;;12.85;3.75;;;;;;;13.24;55.02;101866.41;7387785;19;20472;-53
2023/05/05 07:19:07;;;;;;;8.85;3.72;;;;;;;13.17;55.25;101850.84;7391025;19;20037;-55
2023/05/05 07:21:34;;;;;;;10.20;3.58;;;;;;;13.14;55.24;101858.19;7390990;19;20018;-55
2023/05/05 07:24:02;;;;;;;10.48;4.10;;;;;;;13.07;56.05;101854.22;7389869;19;20362;-56
2023/05/05 07:26:29;;;;;;;11.15;3.65;;;;;;;13.07;56.03;101851.56;7388765;19;20033;-57
2023/05/05 07:28:57;;;;;;;12.68;3.88;;;;;;;13.11;55.86;101850.41;7390431;19;20022;-57
2023/05/05 07:31:25;;;;;;;11.45;3.75;;;;;;;13.16;55.78;101858.91;7391569;19;20139;-58
2023/05/05 07:33:52;;;;;;;11.73;3.78;;;;;;;13.11;56.10;101869.03;7391194;19;20043;-58
2023/05/05 07:36:19;;;;;;;12.90;4.38;;;;;;;13.14;56.03;101871.47;7387168;19;20011;-57
2023/05/05 07:38:46;;;;;;;9.95;3.85;;;;;;;13.13;56.86;101872.44;7390093;19;20091;-57
2023/05/05 07:41:13;;;;;;;11.20;4.20;;;;;;;13.13;58.23;101867.13;7391244;19;20022;-57
2023/05/05 07:43:40;;;;;;;10.43;3.83;;;;;;;13.02;59.96;101864.31;7390956;19;20405;-58
2023/05/05 07:46:10;;;;;;;11.38;4.30;;;;;;;12.92;61.00;101856.09;7389193;19;20102;-57
2023/05/05 07:48:40;;;;;;;14.95;4.40;;;;;;;12.86;61.81;101846.72;7388621;19;20380;-57
2023/05/05 07:51:08;;;;;;;8.82;4.35;;;;;;;12.83;63.05;101860.22;7391054;19;20023;-57
2023/05/05 07:53:35;;;;;;;13.48;4.60;;;;;;;12.79;64.49;101850.72;7403939;19;20355;-57
2023/05/05 07:56:02;;;;;;;12.85;4.78;;;;;;;12.73;65.31;101836.97;7403406;19;20022;-58
2023/05/05 07:58:29;;;;;;;14.18;5.18;;;;;;;12.72;65.94;101844.09;7403981;19;20011;-58
2023/05/05 08:00:56;;;;;;;22.83;13.27;;;;;;;12.76;66.38;101834.13;7404990;19;20548;-58
2023/05/05 08:03:23;;;;;;;15.43;5.70;;;;;;;12.81;66.47;101811.59;7403349;19;20035;-58
2023/05/05 08:05:53;;;;;;;13.10;5.15;;;;;;;12.92;65.75;101798.44;7402981;19;20018;-58
2023/05/05 08:08:23;;;;;;;11.80;4.75;;;;;;;12.95;66.02;101783.25;7404429;19;20023;-58
2023/05/05 08:10:51;;;;;;;13.73;5.10;;;;;;;13.06;66.02;101773.59;7404631;19;20086;-57
2023/05/05 08:13:19;;;;;;;9.80;4.53;;;;;;;13.17;65.50;101781.69;7404520;19;20092;-57
2023/05/05 08:15:46;;;;;;;12.18;4.72;;;;;;;13.25;64.98;101770.56;7402980;19;20484;-58
2023/05/05 08:18:13;;;;;;;10.85;4.70;;;;;;;13.30;65.42;101748.97;7404214;19;20020;-58
2023/05/05 08:20:40;;;;;;;12.90;5.10;;;;;;;13.29;65.81;101745.47;7403147;19;20021;-58
2023/05/05 08:23:07;;;;;;;9.55;4.38;;;;;;;13.32;65.62;101745.25;7404670;19;20508;-56
2023/05/05 08:25:34;;;;;;;12.02;4.47;;;;;;;13.35;64.99;101753.00;7402793;19;20051;-57
2023/05/05 08:28:02;;;;;;;10.50;4.60;;;;;;;13.43;64.85;101754.28;7401845;19;20018;-56
2023/05/05 08:30:29;;;;;;;10.20;4.82;;;;;;;13.46;64.76;101759.38;7403083;19;20018;-56
2023/05/05 08:32:56;;;;;;;11.07;4.40;;;;;;;13.54;64.43;101759.69;7402480;19;20048;-56
2023/05/05 08:35:23;;;;;;;10.50;4.78;;;;;;;13.68;64.29;101756.94;7401606;19;20030;-57
2023/05/05 08:37:50;;;;;;;12.05;4.72;;;;;;;13.76;63.41;101756.38;7404117;19;20029;-56
2023/05/05 08:40:19;;;;;;;7.97;4.10;;;;;;;14.00;62.62;101743.13;7403084;19;20056;-56
2023/05/05 08:42:47;;;;;;;8.15;3.85;;;;;;;14.20;61.07;101747.00;7404232;19;20018;-56
2023/05/05 08:45:14;;;;;;;12.50;4.45;;;;;;;14.36;60.35;101748.44;7401951;19;20053;-56
2023/05/05 08:47:42;;;;;;;11.10;4.25;;;;;;;14.39;59.95;101763.34;7400354;19;20011;-59
2023/05/05 08:50:10;;;;;;;10.40;4.07;;;;;;;14.39;59.89;101756.19;7402057;19;20499;-59
2023/05/05 08:52:39;;;;;;;12.13;4.45;;;;;;;14.39;59.77;101760.69;7403674;19;20033;-57
2023/05/05 08:55:22;;;;;;;10.10;4.10;;;;;;;14.34;59.92;101771.66;7401058;19;20033;-57
2023/05/05 08:57:56;;;;;;;12.32;4.30;;;;;;;14.23;59.79;101787.59;7399447;19;20521;-57
2023/05/05 09:00:25;;;;;;;9.90;4.72;;;;;;;14.13;60.04;101795.41;7400971;19;20499;-57
2023/05/05 09:02:57;;;;;;;10.20;3.80;;;;;;;14.07;60.65;101810.97;7400731;19;20039;-57
2023/05/05 09:05:25;;;;;;;11.73;4.97;;;;;;;14.02;60.97;101815.78;7391873;19;20026;-56
2023/05/05 09:07:52;;;;;;;14.10;9.50;;;;;;;13.97;61.63;101812.59;7393978;19;20503;-55
2023/05/05 09:10:19;;;;;;;12.73;7.28;;;;;;;13.93;61.09;101814.63;7394041;19;20346;-55
2023/05/05 09:12:49;;;;;;;13.15;5.55;;;;;;;13.90;60.48;101821.00;7396337;19;20098;-55
2023/05/05 09:15:16;;;;;;;11.88;4.78;;;;;;;13.93;59.82;101819.06;7394589;19;20018;-54
2023/05/05 09:17:43;;;;;;;10.85;4.60;;;;;;;13.93;60.67;101819.06;7394388;19;20015;-54
2023/05/05 09:20:12;;;;;;;12.15;5.20;;;;;;;13.94;61.05;101819.00;7394470;19;20019;-54
2023/05/05 09:22:41;;;;;;;10.35;4.40;;;;;;;13.95;60.63;101802.03;7395666;19;20040;-57
2023/05/05 09:25:13;;;;;;;11.15;4.13;;;;;;;13.94;60.70;101799.50;7394119;19;20086;-54
2023/05/05 09:27:45;;;;;;;11.68;4.32;;;;;;;13.92;60.97;101799.59;7393531;19;20018;-54
2023/05/05 09:30:22;;;;;;;11.20;4.47;;;;;;;13.92;61.42;101812.06;7392864;19;20041;-55
2023/05/05 09:32:54;;;;;;;12.20;4.32;;;;;;;13.90;62.45;101807.69;7394923;19;20019;-54
2023/05/05 09:35:22;;;;;;;9.80;4.65;;;;;;;14.01;62.54;101801.63;7393361;19;20015;-55
2023/05/05 09:37:49;;;;;;;11.48;4.55;;;;;;;14.19;62.93;101802.09;7394653;19;20378;-56
2023/05/05 09:40:18;;;;;;;13.65;4.88;;;;;;;14.39;63.19;101800.66;7394321;19;20010;-55
2023/05/05 09:42:45;;;;;;;10.52;5.00;;;;;;;14.56;62.45;101800.28;7394995;19;20015;-56
2023/05/05 09:45:18;;;;;;;10.60;5.25;;;;;;;14.66;62.43;101788.97;7393541;19;20030;-55
2023/05/05 09:47:46;;;;;;;9.32;4.80;;;;;;;14.66;62.46;101783.63;7392046;19;20444;-55
2023/05/05 09:50:17;;;;;;;11.15;5.43;;;;;;;14.62;62.84;101791.84;7391988;19;20018;-54
2023/05/05 09:52:59;;;;;;;14.95;6.68;;;;;;;14.81;62.95;101790.50;7395118;19;20022;-57
2023/05/05 09:55:27;;;;;;;11.27;5.15;;;;;;;14.70;62.91;101780.63;7393150;19;20035;-57
2023/05/05 09:57:54;;;;;;;13.95;5.32;;;;;;;14.68;63.09;101785.19;7394241;19;20022;-58
2023/05/05 10:00:21;;;;;;;15.48;7.28;;;;;;;14.85;62.91;101779.47;7393301;19;20483;-58
2023/05/05 10:02:48;;;;;;;11.30;6.03;;;;;;;15.07;61.87;101773.38;7394165;19;20018;-57
2023/05/05 10:05:17;;;;;;;13.88;6.45;;;;;;;15.28;62.76;101767.34;7392346;19;20026;-57
2023/05/05 10:07:46;;;;;;;14.52;5.90;;;;;;;15.38;63.50;101770.13;7392500;19;20018;-57
2023/05/05 10:10:16;;;;;;;10.52;5.13;;;;;;;15.44;62.02;101764.31;7392659;19;20036;-53
2023/05/05 10:12:50;;;;;;;10.18;5.45;;;;;;;15.46;61.21;101771.25;7392300;19;20094;-54
2023/05/05 10:15:17;;;;;;;10.93;5.22;;;;;;;15.49;60.62;101767.47;7391941;19;20099;-52
2023/05/05 10:17:48;;;;;;;11.60;4.55;;;;;;;15.65;60.56;101759.13;7394307;19;20053;-54
2023/05/05 10:20:21;;;;;;;12.05;5.65;;;;;;;15.72;60.33;101752.34;7392566;19;20093;-52
2023/05/05 10:22:52;;;;;;;10.82;4.85;;;;;;;15.77;59.58;101758.19;7391576;19;20102;-55
2023/05/05 10:25:31;;;;;;;10.40;4.90;;;;;;;15.81;59.13;101755.13;7392158;19;20022;-57
2023/05/05 10:27:59;;;;;;;13.27;5.18;;;;;;;15.76;59.40;101754.66;7392098;19;20018;-57
2023/05/05 10:30:29;;;;;;;9.45;4.65;;;;;;;15.73;58.91;101757.56;7392423;19;20023;-57
2023/05/05 10:33:08;;;;;;;11.05;4.88;;;;;;;15.76;58.64;101768.03;7393204;19;20011;-56
2023/05/05 10:35:58;;;;;;;10.70;4.60;;;;;;;15.88;57.93;101765.34;7389380;19;20049;-56
2023/05/05 10:38:30;;;;;;;9.90;4.47;;;;;;;16.12;57.32;101768.69;7390785;19;20043;-57
2023/05/05 10:41:00;;;;;;;11.32;4.60;;;;;;;16.18;57.09;101765.53;7392728;19;20030;-56
2023/05/05 10:43:31;;;;;;;11.38;4.75;;;;;;;16.15;56.74;101771.13;7392949;19;20031;-56
2023/05/05 10:46:01;;;;;;;11.30;4.38;;;;;;;16.08;56.39;101775.28;7390874;19;20015;-56
2023/05/05 10:48:36;;;;;;;9.70;4.28;;;;;;;16.12;55.83;101774.03;7390948;19;20015;-57
2023/05/05 10:51:28;;;;;;;10.57;4.63;;;;;;;16.22;55.94;101782.19;7392556;19;20019;-57
2023/05/05 10:54:40;;;;;;;8.40;4.22;;;;;;;16.22;54.45;101775.00;7392459;19;20491;-54
2023/05/05 10:57:10;;;;;;;12.57;4.40;;;;;;;16.21;55.05;101773.28;7390269;19;20022;-56
2023/05/05 10:59:38;;;;;;;11.02;4.47;;;;;;;16.28;54.90;101768.31;7391328;19;20015;-56
2023/05/05 11:02:19;;;;;;;10.00;4.32;;;;;;;16.33;54.11;101766.09;7392514;19;20010;-56
2023/05/05 11:05:13;;;;;;;10.35;4.90;;;;;;;16.31;54.06;101757.38;7391647;19;20509;-57
2023/05/05 11:07:41;;;;;;;;;;;;;;;16.21;53.73;101757.25;7391928;19;20014;-56
2023/05/05 11:10:10;;;;;;;10.73;4.32;;;;;;;16.21;55.01;101751.91;7390697;19;19918;-56
2023/05/05 11:12:58;;;;;;;9.20;4.40;;;;;;;16.39;54.22;101751.38;7392087;19;20022;-57
2023/05/05 11:15:28;;;;;;;10.82;4.43;;;;;;;16.44;54.39;101750.03;7389129;19;20135;-57
2023/05/05 11:17:57;;;;;;;10.98;4.28;;;;;;;16.52;54.51;101744.03;7392142;19;20039;-56
2023/05/05 11:20:44;;;;;;;12.13;4.35;;;;;;;16.57;53.31;101745.38;7389148;19;20034;-56
2023/05/05 11:23:11;;;;;;;12.23;4.90;;;;;;;16.54;52.83;101742.94;7391941;19;20446;-57
2023/05/05 11:25:43;;;;;;;11.27;4.68;;;;;;;16.52;52.39;101752.06;7389488;19;20026;-56
2023/05/05 11:28:27;;;;;;;10.15;4.28;;;;;;;16.62;52.53;101752.16;7388847;19;20623;-57
2023/05/05 11:31:00;;;;;;;10.73;4.43;;;;;;;16.64;53.26;101747.53;7391436;19;20505;-56